Time;durP1;ratioP1;P1;durP2;ratioP2;P2;SDS_P1;SDS_P2;PMS_P1;PMS_P2;Temp;Humidity;BMP_temperature;BMP_pressure;BME280_temperature;BME280_humidity;BME280_pressure;Samples;Min_cycle;Max_cycle;Signal;HPM_P1;HPM_P2
2023/07/10 00:01:33;;;;;;;10.67;8.87;;;29.60;58.80;;;;;;5021099;28;20453;-76
2023/07/10 00:04:01;;;;;;;8.60;7.40;;;29.60;58.60;;;;;;5023806;28;20451;-76
2023/07/10 00:06:30;;;;;;;11.97;7.27;;;29.90;58.90;;;;;;5023869;28;20451;-76
2023/07/10 00:08:58;;;;;;;8.13;6.77;;;30.20;57.80;;;;;;5025170;28;20525;-76
2023/07/10 00:11:30;;;;;;;8.93;6.57;;;30.30;57.00;;;;;;5024206;28;20422;-77
2023/07/10 00:13:58;;;;;;;9.20;7.70;;;30.50;56.50;;;;;;5026601;28;20471;-75
2023/07/10 00:16:27;;;;;;;7.43;6.70;;;30.70;56.00;;;;;;5025349;28;20452;-76
2023/07/10 00:18:55;;;;;;;10.30;6.80;;;30.80;55.80;;;;;;5026800;28;20448;-76
2023/07/10 00:21:23;;;;;;;7.40;6.60;;;30.80;55.40;;;;;;5025504;28;20447;-76
2023/07/10 00:23:51;;;;;;;6.07;5.57;;;30.90;55.00;;;;;;5023247;28;20518;-76
2023/07/10 00:26:21;;;;;;;6.87;5.90;;;31.00;54.80;;;;;;5022420;28;20536;-76
2023/07/10 00:28:51;;;;;;;8.50;5.83;;;31.00;54.70;;;;;;5024979;28;20867;-77
2023/07/10 00:31:19;;;;;;;6.90;6.20;;;31.10;54.60;;;;;;5022545;28;20435;-76
2023/07/10 00:33:48;;;;;;;9.93;5.80;;;31.10;54.40;;;;;;5026874;28;20446;-76
2023/07/10 00:36:26;;;;;;;8.43;5.87;;;31.10;54.30;;;;;;5025988;28;20953;-76
2023/07/10 00:38:54;;;;;;;5.90;5.40;;;31.20;54.20;;;;;;5028346;28;20432;-77
2023/07/10 00:41:22;;;;;;;6.07;4.80;;;31.20;54.10;;;;;;5023700;28;21018;-76
2023/07/10 00:43:53;;;;;;;5.70;5.10;;;31.20;54.00;;;;;;5022632;28;20484;-76
2023/07/10 00:46:24;;;;;;;5.43;4.87;;;31.30;53.90;;;;;;5010156;28;20484;-76
2023/07/10 00:48:54;;;;;;;5.27;4.80;;;31.30;53.70;;;;;;5011198;28;20449;-76
2023/07/10 00:51:24;;;;;;;4.87;4.60;;;31.30;53.70;;;;;;5010636;28;21008;-76
2023/07/10 00:53:52;;;;;;;5.33;4.83;;;31.30;53.60;;;;;;5010721;28;20551;-76
2023/07/10 00:56:21;;;;;;;5.13;4.70;;;31.30;53.40;;;;;;5013490;28;20507;-77
2023/07/10 00:58:49;;;;;;;5.40;4.83;;;31.30;53.40;;;;;;5032189;28;20550;-76
2023/07/10 01:01:19;;;;;;;5.33;4.83;;;31.40;53.40;;;;;;5022214;28;20439;-76
2023/07/10 01:03:49;;;;;;;5.00;4.60;;;31.40;53.20;;;;;;5026456;28;20513;-75
2023/07/10 01:06:19;;;;;;;5.47;4.97;;;31.40;53.10;;;;;;5033957;28;20561;-76
2023/07/10 01:08:48;;;;;;;6.00;5.00;;;31.40;53.10;;;;;;5033978;28;20462;-76
2023/07/10 01:11:17;;;;;;;5.40;4.90;;;31.40;53.00;;;;;;5033815;28;20867;-76
2023/07/10 01:13:44;;;;;;;6.87;5.00;;;31.40;53.00;;;;;;5033714;28;20462;-76
2023/07/10 01:16:13;;;;;;;4.73;4.40;;;31.40;52.90;;;;;;5021166;28;20496;-76
2023/07/10 01:18:42;;;;;;;5.40;4.90;;;31.40;52.90;;;;;;5033444;28;20447;-76
2023/07/10 01:21:13;;;;;;;5.33;4.90;;;31.40;52.90;;;;;;5028970;28;20455;-76
2023/07/10 01:23:41;;;;;;;5.93;4.70;;;31.40;52.90;;;;;;5033528;28;20534;-76
2023/07/10 01:26:09;;;;;;;4.90;4.50;;;31.40;52.70;;;;;;5033413;28;20471;-76
2023/07/10 01:28:38;;;;;;;4.63;4.23;;;31.40;53.40;;;;;;5033795;28;20532;-76
2023/07/10 01:31:08;;;;;;;4.97;4.67;;;31.40;52.80;;;;;;5033638;28;20467;-76
2023/07/10 01:33:39;;;;;;;4.37;3.97;;;31.40;52.70;;;;;;5032756;28;20909;-75
2023/07/10 01:36:07;;;;;;;4.20;3.90;;;31.40;52.60;;;;;;5033082;28;20527;-74
2023/07/10 01:38:38;;;;;;;4.80;4.40;;;31.40;52.50;;;;;;5025079;28;20868;-74
2023/07/10 01:41:20;;;;;;;5.93;4.80;;;31.40;52.60;;;;;;5033412;28;20446;-74
2023/07/10 01:43:48;;;;;;;5.03;3.97;;;31.40;52.50;;;;;;5025540;28;20466;-74
2023/07/10 01:46:18;;;;;;;4.07;3.87;;;31.40;52.50;;;;;;5025008;28;20479;-74
2023/07/10 01:48:46;;;;;;;4.83;4.43;;;31.40;52.40;;;;;;5031025;28;20855;-74
2023/07/10 01:51:14;;;;;;;4.77;4.33;;;31.40;52.40;;;;;;5031501;28;20475;-74
2023/07/10 01:53:44;;;;;;;4.10;3.80;;;31.40;52.60;;;;;;5032697;28;20435;-74
2023/07/10 01:56:13;;;;;;;4.50;4.10;;;31.40;52.60;;;;;;5033529;28;20542;-74
2023/07/10 01:58:41;;;;;;;6.13;4.60;;;31.40;52.30;;;;;;5032945;28;20448;-74
2023/07/10 02:01:09;;;;;;;4.00;3.73;;;31.40;52.50;;;;;;5032937;28;20530;-74
2023/07/10 02:03:37;;;;;;;4.70;4.30;;;31.40;52.40;;;;;;5033037;28;20442;-74
2023/07/10 02:06:05;;;;;;;4.30;4.00;;;31.40;52.50;;;;;;5024660;28;20487;-74
2023/07/10 02:08:33;;;;;;;5.10;4.53;;;31.40;52.50;;;;;;5031615;28;20460;-74
2023/07/10 02:11:02;;;;;;;5.13;4.73;;;31.40;52.40;;;;;;5024612;28;20522;-74
2023/07/10 02:13:30;;;;;;;4.10;3.70;;;31.40;52.50;;;;;;5024350;28;20493;-73
2023/07/10 02:16:01;;;;;;;4.33;3.93;;;31.40;52.40;;;;;;5025956;28;20497;-74
2023/07/10 02:18:29;;;;;;;4.50;4.07;;;31.40;52.50;;;;;;5022788;28;20447;-74
2023/07/10 02:20:57;;;;;;;3.97;3.67;;;31.40;52.30;;;;;;5013419;28;20472;-74
2023/07/10 02:23:25;;;;;;;4.13;3.73;;;31.40;52.40;;;;;;5013321;28;20431;-74
2023/07/10 02:25:54;;;;;;;4.27;3.97;;;31.40;52.30;;;;;;5020002;28;20875;-74
2023/07/10 02:28:23;;;;;;;4.27;3.97;;;31.40;52.40;;;;;;5028188;28;20479;-74
2023/07/10 02:30:52;;;;;;;4.63;4.20;;;31.40;52.30;;;;;;5015644;28;20518;-74
2023/07/10 02:33:20;;;;;;;4.30;4.00;;;31.40;52.40;;;;;;5029711;28;20544;-74
2023/07/10 02:35:48;;;;;;;4.53;4.13;;;31.40;52.30;;;;;;5032585;28;20414;-74
2023/07/10 02:38:16;;;;;;;4.90;3.90;;;31.30;52.30;;;;;;5016827;28;20445;-74
2023/07/10 02:40:44;;;;;;;6.17;3.90;;;31.40;52.50;;;;;;5030177;28;20443;-73
2023/07/10 02:43:12;;;;;;;4.33;4.03;;;31.40;52.20;;;;;;5031985;28;20462;-74
2023/07/10 02:45:41;;;;;;;4.73;4.37;;;31.30;52.30;;;;;;5023513;28;20439;-74
2023/07/10 02:48:09;;;;;;;4.10;3.80;;;31.30;52.30;;;;;;5026412;28;20415;-73
2023/07/10 02:50:37;;;;;;;4.30;4.00;;;31.30;52.20;;;;;;5027525;28;20463;-74
2023/07/10 02:53:04;;;;;;;5.00;4.50;;;31.30;52.30;;;;;;5031929;28;20534;-74
2023/07/10 02:55:33;;;;;;;7.60;4.10;;;31.30;52.20;;;;;;5031034;28;20869;-74
2023/07/10 02:58:02;;;;;;;4.63;4.20;;;31.30;52.30;;;;;;5031530;28;20442;-74
2023/07/10 03:00:29;;;;;;;5.00;4.50;;;31.30;52.20;;;;;;5029615;28;20945;-74
2023/07/10 03:02:58;;;;;;;4.80;3.93;;;31.30;52.30;;;;;;5027847;28;20502;-74
2023/07/10 03:05:26;;;;;;;4.60;4.27;;;31.30;52.30;;;;;;5038887;28;20457;-74
2023/07/10 03:07:54;;;;;;;4.40;4.10;;;31.30;52.20;;;;;;5021837;28;20476;-74
2023/07/10 03:10:22;;;;;;;4.37;3.93;;;31.30;52.20;;;;;;5018235;28;20530;-74
2023/07/10 03:12:50;;;;;;;4.00;3.70;;;31.30;52.20;;;;;;5023334;28;20443;-73
2023/07/10 03:15:18;;;;;;;4.50;4.20;;;31.30;52.20;;;;;;5031722;28;20473;-75
2023/07/10 03:17:46;;;;;;;4.60;4.20;;;31.30;52.30;;;;;;5027373;28;20461;-75
2023/07/10 03:20:15;;;;;;;5.73;4.17;;;31.30;52.30;;;;;;5030745;28;20414;-75
2023/07/10 03:22:44;;;;;;;3.90;3.40;;;31.30;52.40;;;;;;5031496;28;20471;-75
2023/07/10 03:25:11;;;;;;;4.70;4.40;;;31.30;52.30;;;;;;5031332;28;20508;-75
2023/07/10 03:27:40;;;;;;;3.93;3.53;;;31.30;52.20;;;;;;5031066;28;20483;-75
2023/07/10 03:30:09;;;;;;;4.33;4.03;;;31.30;52.20;;;;;;5031165;28;20517;-75
2023/07/10 03:32:37;;;;;;;6.73;3.63;;;31.30;52.20;;;;;;5030265;28;20554;-75
2023/07/10 03:35:06;;;;;;;3.90;3.70;;;31.30;52.30;;;;;;5031442;28;20460;-74
2023/07/10 03:37:36;;;;;;;3.83;3.57;;;31.20;52.30;;;;;;5031385;28;20866;-75
2023/07/10 03:40:04;;;;;;;3.73;3.43;;;31.30;52.30;;;;;;5031382;28;20443;-75
2023/07/10 03:42:32;;;;;;;4.50;3.97;;;31.30;52.30;;;;;;5031055;28;20507;-75
2023/07/10 03:45:00;;;;;;;3.37;3.07;;;31.30;52.30;;;;;;5030982;28;20550;-75
2023/07/10 03:47:29;;;;;;;4.57;4.17;;;31.20;52.40;;;;;;5030289;28;20471;-75
2023/07/10 03:49:57;;;;;;;4.03;3.67;;;31.30;52.40;;;;;;5030338;28;20533;-75
2023/07/10 03:52:25;;;;;;;4.90;3.83;;;31.20;52.30;;;;;;5031313;28;20544;-75
2023/07/10 03:54:54;;;;;;;4.07;3.50;;;31.20;52.30;;;;;;5031159;28;20459;-75
2023/07/10 03:57:22;;;;;;;4.43;3.13;;;31.20;52.60;;;;;;5031069;28;20474;-74
2023/07/10 03:59:51;;;;;;;6.43;4.40;;;31.20;52.20;;;;;;5030741;28;20474;-76
2023/07/10 04:02:19;;;;;;;3.50;3.20;;;31.20;52.30;;;;;;5030941;28;20479;-75
2023/07/10 04:04:47;;;;;;;3.70;3.40;;;31.20;52.40;;;;;;5024668;28;20494;-76
2023/07/10 04:07:15;;;;;;;4.00;3.70;;;31.20;52.30;;;;;;5025529;28;20496;-75
2023/07/10 04:09:43;;;;;;;4.10;3.80;;;31.20;52.30;;;;;;5028374;28;20480;-75
2023/07/10 04:12:12;;;;;;;4.83;3.63;;;31.20;52.40;;;;;;5030641;28;20467;-75
2023/07/10 04:14:40;;;;;;;3.80;3.50;;;31.20;52.20;;;;;;5031105;28;20550;-75
2023/07/10 04:17:08;;;;;;;4.03;3.67;;;31.20;52.30;;;;;;5030451;28;20523;-75
2023/07/10 04:19:36;;;;;;;3.23;3.03;;;31.20;53.10;;;;;;5029955;28;20447;-75
2023/07/10 04:22:04;;;;;;;3.23;3.13;;;31.20;52.20;;;;;;5030248;28;20485;-75
2023/07/10 04:24:32;;;;;;;3.50;3.30;;;31.20;52.30;;;;;;5030508;28;20514;-75
2023/07/10 04:27:03;;;;;;;4.53;4.00;;;31.20;52.40;;;;;;5022661;28;20475;-75
2023/07/10 04:29:32;;;;;;;3.70;3.50;;;31.20;52.20;;;;;;5031760;28;20504;-75
2023/07/10 04:32:00;;;;;;;4.20;3.50;;;31.10;52.20;;;;;;5034792;28;20439;-75
2023/07/10 04:34:28;;;;;;;4.07;3.67;;;31.10;52.30;;;;;;5034246;28;20549;-75
2023/07/10 04:36:56;;;;;;;3.67;3.23;;;31.10;52.40;;;;;;5032215;28;20472;-75
2023/07/10 04:39:24;;;;;;;4.30;4.00;;;31.20;52.40;;;;;;5034337;28;20422;-74
2023/07/10 04:41:52;;;;;;;3.93;3.63;;;31.20;52.30;;;;;;5031587;28;20459;-75
2023/07/10 04:44:20;;;;;;;3.63;3.40;;;31.20;52.20;;;;;;5034511;28;20888;-75
2023/07/10 04:46:49;;;;;;;4.17;3.77;;;31.20;52.30;;;;;;5034245;28;20439;-75
2023/07/10 04:49:19;;;;;;;3.60;3.30;;;31.20;52.30;;;;;;5034282;28;20447;-75
2023/07/10 04:51:47;;;;;;;3.83;3.47;;;31.20;52.20;;;;;;5031877;28;20465;-73
2023/07/10 04:54:15;;;;;;;3.70;3.40;;;31.30;52.20;;;;;;5034460;28;20546;-75
2023/07/10 04:56:43;;;;;;;4.93;3.30;;;31.30;52.20;;;;;;5033918;28;20510;-75
2023/07/10 04:59:10;;;;;;;3.37;3.07;;;31.30;52.00;;;;;;5026904;28;20479;-75
2023/07/10 05:01:38;;;;;;;6.73;4.53;;;31.30;52.00;;;;;;5026264;28;20471;-75
2023/07/10 05:04:08;;;;;;;3.70;3.40;;;31.30;52.00;;;;;;5025926;28;20509;-75
2023/07/10 05:06:37;;;;;;;3.70;3.50;;;31.30;51.90;;;;;;5034334;28;20439;-75
2023/07/10 05:09:05;;;;;;;4.00;3.50;;;31.30;51.90;;;;;;5017268;28;20549;-75
2023/07/10 05:11:32;;;;;;;4.47;3.20;;;31.40;51.90;;;;;;5033874;28;20432;-75
2023/07/10 05:14:00;;;;;;;3.70;3.50;;;31.40;51.90;;;;;;5034050;28;20491;-75
2023/07/10 05:16:30;;;;;;;4.93;3.90;;;31.40;52.00;;;;;;5019243;28;20470;-74
2023/07/10 05:18:58;;;;;;;3.40;3.10;;;31.40;52.00;;;;;;5024482;28;20447;-75
2023/07/10 05:21:27;;;;;;;3.77;3.43;;;31.40;51.80;;;;;;5034212;28;20461;-75
2023/07/10 05:23:55;;;;;;;3.83;3.43;;;31.40;51.70;;;;;;5033471;28;20546;-75
2023/07/10 05:26:23;;;;;;;4.07;3.47;;;31.40;51.80;;;;;;5033651;28;20446;-75
2023/07/10 05:28:50;;;;;;;4.60;3.67;;;31.40;51.60;;;;;;5031657;28;20540;-75
2023/07/10 05:31:18;;;;;;;3.37;3.17;;;31.40;51.60;;;;;;5033418;28;20856;-75
2023/07/10 05:33:47;;;;;;;3.53;3.23;;;31.40;51.60;;;;;;5033690;28;20550;-75
2023/07/10 05:36:16;;;;;;;3.50;3.20;;;31.40;51.70;;;;;;5033606;28;20422;-75
2023/07/10 05:38:48;;;;;;;3.97;3.60;;;31.40;51.70;;;;;;5033555;28;20555;-75
2023/07/10 05:41:16;;;;;;;6.53;3.97;;;31.40;51.60;;;;;;5032622;28;20443;-75
2023/07/10 05:43:43;;;;;;;3.57;3.37;;;31.40;51.60;;;;;;5019120;28;20478;-75
2023/07/10 05:46:11;;;;;;;3.80;3.50;;;31.40;51.70;;;;;;5033167;28;20543;-75
2023/07/10 05:48:39;;;;;;;3.57;3.27;;;31.40;51.70;;;;;;5033446;28;20483;-76
2023/07/10 05:51:07;;;;;;;3.97;3.67;;;31.40;51.70;;;;;;5028334;28;20538;-75
2023/07/10 05:53:35;;;;;;;4.60;3.10;;;31.50;51.60;;;;;;5033036;28;20525;-75
2023/07/10 05:56:04;;;;;;;3.27;3.10;;;31.50;51.70;;;;;;5033603;28;20471;-75
2023/07/10 05:58:34;;;;;;;3.83;3.00;;;31.50;51.60;;;;;;5032973;28;20407;-75
2023/07/10 06:01:02;;;;;;;3.57;3.20;;;31.50;51.50;;;;;;5026508;28;20505;-75
2023/07/10 06:03:32;;;;;;;3.80;3.47;;;31.50;51.60;;;;;;5032938;28;20471;-75
2023/07/10 06:06:01;;;;;;;4.43;3.57;;;31.50;51.60;;;;;;5032105;28;20439;-75
2023/07/10 06:08:29;;;;;;;3.80;3.00;;;31.60;51.50;;;;;;5032663;28;20483;-75
2023/07/10 06:10:57;;;;;;;3.87;3.60;;;31.60;51.50;;;;;;5024598;28;20446;-75
2023/07/10 06:13:26;;;;;;;3.87;3.57;;;31.60;51.40;;;;;;5033032;28;20547;-74
2023/07/10 06:15:56;;;;;;;3.60;3.37;;;31.60;51.50;;;;;;5032069;28;20518;-74
2023/07/10 06:18:24;;;;;;;3.97;3.63;;;31.60;51.40;;;;;;5032540;28;20479;-75
2023/07/10 06:20:53;;;;;;;5.60;3.60;;;31.70;51.30;;;;;;5032538;28;20501;-75
2023/07/10 06:23:21;;;;;;;3.90;3.60;;;31.70;51.10;;;;;;5032299;28;20463;-75
2023/07/10 06:25:49;;;;;;;3.50;3.23;;;31.70;51.20;;;;;;5032741;28;20444;-75
2023/07/10 06:28:17;;;;;;;4.10;3.60;;;31.80;51.10;;;;;;5032527;28;20467;-75
2023/07/10 06:30:53;;;;;;;3.57;3.37;;;31.80;51.00;;;;;;5024475;28;20502;-75
2023/07/10 06:33:21;;;;;;;4.23;3.40;;;31.80;51.00;;;;;;5030602;28;20483;-75
2023/07/10 06:35:49;;;;;;;3.47;3.17;;;31.80;50.90;;;;;;5032558;28;20538;-74
2023/07/10 06:38:17;;;;;;;4.20;3.23;;;31.80;50.90;;;;;;5024719;28;20443;-75
2023/07/10 06:40:45;;;;;;;3.77;3.30;;;31.80;50.80;;;;;;5032253;28;20961;-76
2023/07/10 06:43:13;;;;;;;3.50;3.20;;;31.80;50.70;;;;;;5032225;28;20481;-75
2023/07/10 06:45:41;;;;;;;4.93;3.67;;;31.90;50.80;;;;;;5030787;28;20452;-75
2023/07/10 06:48:10;;;;;;;6.53;3.30;;;31.90;50.70;;;;;;5032167;28;20529;-75
2023/07/10 06:50:38;;;;;;;3.97;3.60;;;31.90;50.70;;;;;;5031830;28;20521;-75
2023/07/10 06:53:06;;;;;;;3.37;2.83;;;31.90;50.70;;;;;;5025883;28;20460;-75
2023/07/10 06:55:55;;;;;;;4.17;3.80;;;31.90;50.60;;;;;;5021643;28;20410;-75
2023/07/10 06:58:23;;;;;;;3.87;3.57;;;31.90;50.50;;;;;;5018180;28;20519;-75
2023/07/10 07:00:51;;;;;;;3.53;2.70;;;31.90;50.50;;;;;;5022211;28;20530;-75
2023/07/10 07:03:21;;;;;;;3.77;3.10;;;31.90;50.50;;;;;;5023538;28;20443;-75
2023/07/10 07:05:50;;;;;;;5.17;3.30;;;31.90;50.50;;;;;;5029317;28;20463;-75
2023/07/10 07:08:18;;;;;;;3.47;2.90;;;31.90;50.50;;;;;;5025331;28;20557;-74
2023/07/10 07:10:46;;;;;;;3.50;3.20;;;31.90;50.50;;;;;;5027320;28;20439;-75
2023/07/10 07:13:14;;;;;;;3.00;2.80;;;31.90;50.60;;;;;;5026306;28;20469;-75
2023/07/10 07:15:42;;;;;;;3.33;3.13;;;31.90;50.60;;;;;;5030963;28;20439;-74
2023/07/10 07:18:11;;;;;;;3.10;2.90;;;31.80;50.60;;;;;;5030310;28;20531;-74
2023/07/10 07:20:40;;;;;;;5.70;3.33;;;31.90;50.40;;;;;;5024291;28;20435;-75
2023/07/10 07:23:08;;;;;;;2.87;2.70;;;31.90;50.40;;;;;;5029862;28;20446;-74
2023/07/10 07:25:36;;;;;;;2.80;2.70;;;31.90;50.40;;;;;;5023244;28;20422;-75
2023/07/10 07:28:04;;;;;;;3.63;3.33;;;31.90;50.30;;;;;;5023279;28;20530;-75
2023/07/10 07:30:32;;;;;;;5.20;3.50;;;32.00;50.40;;;;;;5024762;28;20472;-74
2023/07/10 07:33:00;;;;;;;3.13;2.80;;;32.00;50.30;;;;;;5026941;28;20455;-75
2023/07/10 07:35:28;;;;;;;3.00;2.80;;;32.00;50.10;;;;;;5027703;28;20442;-74
2023/07/10 07:37:57;;;;;;;3.27;3.07;;;32.00;50.00;;;;;;5029111;28;20440;-74
2023/07/10 07:40:25;;;;;;;4.20;3.03;;;32.00;50.00;;;;;;5028668;28;20427;-75
2023/07/10 07:42:53;;;;;;;3.70;3.20;;;32.10;50.20;;;;;;5031333;28;20440;-75
2023/07/10 07:45:21;;;;;;;3.73;2.73;;;32.10;49.90;;;;;;5024942;28;20516;-75
2023/07/10 07:47:49;;;;;;;3.20;2.97;;;32.10;49.80;;;;;;5026854;28;20459;-75
2023/07/10 07:50:17;;;;;;;2.70;2.50;;;32.10;49.70;;;;;;5030818;28;20491;-75
2023/07/10 07:52:45;;;;;;;2.70;2.50;;;32.10;49.70;;;;;;5031325;28;20450;-75
2023/07/10 07:55:15;;;;;;;5.80;2.83;;;32.20;49.70;;;;;;5030810;28;20503;-76
2023/07/10 07:57:43;;;;;;;2.77;2.57;;;32.20;49.60;;;;;;5026759;28;20475;-75
2023/07/10 08:00:12;;;;;;;3.43;2.80;;;32.20;49.50;;;;;;5027128;28;20634;-76
2023/07/10 08:02:40;;;;;;;9.03;2.93;;;32.20;49.30;;;;;;5028595;28;20479;-75
2023/07/10 08:05:08;;;;;;;4.60;2.60;;;32.20;49.70;;;;;;5026087;28;20463;-75
2023/07/10 08:07:55;;;;;;;5.70;2.80;;;32.20;49.90;;;;;;5030885;28;20435;-75
2023/07/10 08:10:24;;;;;;;7.17;2.60;;;32.20;50.00;;;;;;5024683;28;20525;-75
2023/07/10 08:12:52;;;;;;;2.50;2.40;;;32.20;50.20;;;;;;5032008;28;20501;-75
2023/07/10 08:15:20;;;;;;;2.50;2.30;;;32.30;50.40;;;;;;5029481;28;20558;-75
2023/07/10 08:17:48;;;;;;;6.33;2.83;;;32.40;50.30;;;;;;5027642;28;20475;-77
2023/07/10 08:20:16;;;;;;;6.50;2.60;;;32.40;50.30;;;;;;5032375;28;20450;-75
2023/07/10 08:22:45;;;;;;;2.77;2.50;;;32.50;50.20;;;;;;5030220;28;20562;-75
2023/07/10 08:25:13;;;;;;;2.40;2.23;;;32.60;50.20;;;;;;5023323;28;20441;-75
2023/07/10 08:27:44;;;;;;;2.97;2.43;;;32.60;50.10;;;;;;5029134;28;20534;-76
2023/07/10 08:30:12;;;;;;;4.13;2.40;;;32.70;50.10;;;;;;5030316;28;20474;-76
2023/07/10 08:32:40;;;;;;;3.23;2.27;;;32.70;50.10;;;;;;5030543;28;20905;-76
2023/07/10 08:35:09;;;;;;;2.60;2.40;;;32.80;50.20;;;;;;5026734;28;20573;-75
2023/07/10 08:37:37;;;;;;;2.50;2.30;;;32.80;50.00;;;;;;5031881;28;20531;-76
2023/07/10 08:40:05;;;;;;;3.73;2.47;;;32.90;49.90;;;;;;5030411;28;20432;-75
2023/07/10 08:42:34;;;;;;;3.17;2.10;;;32.90;49.90;;;;;;5028161;28;20546;-76
2023/07/10 08:45:05;;;;;;;4.80;2.40;;;33.00;49.80;;;;;;5036134;28;20513;-76
2023/07/10 08:47:34;;;;;;;3.43;2.33;;;33.00;49.70;;;;;;5028297;28;20463;-74
2023/07/10 08:50:05;;;;;;;2.10;2.00;;;33.00;49.80;;;;;;5032712;28;20511;-76
2023/07/10 08:52:35;;;;;;;2.57;2.40;;;33.10;49.60;;;;;;5023467;28;20427;-76
2023/07/10 08:55:04;;;;;;;2.30;2.20;;;33.20;49.40;;;;;;5028723;28;20658;-76
2023/07/10 08:57:33;;;;;;;2.30;2.20;;;33.20;49.10;;;;;;5022524;28;20438;-76
2023/07/10 09:00:04;;;;;;;2.50;2.30;;;33.30;49.00;;;;;;5029457;28;20531;-76
2023/07/10 09:02:37;;;;;;;2.50;2.40;;;33.30;48.80;;;;;;5019462;28;20526;-76
2023/07/10 09:05:06;;;;;;;2.80;2.43;;;33.40;48.80;;;;;;5027861;28;20455;-77
2023/07/10 09:07:36;;;;;;;2.40;2.00;;;33.20;47.20;;;;;;5038698;28;20533;-76
2023/07/10 09:10:05;;;;;;;4.30;2.73;;;32.80;46.10;;;;;;5027278;28;20562;-77
2023/07/10 09:12:36;;;;;;;2.60;2.00;;;32.70;45.70;;;;;;5020076;28;20551;-77
2023/07/10 09:15:06;;;;;;;3.00;2.00;;;32.60;44.80;;;;;;5023757;28;20546;-77
2023/07/10 09:17:40;;;;;;;10.93;2.00;;;32.40;44.60;;;;;;5025765;28;20533;-78
2023/07/10 09:20:10;;;;;;;3.63;2.00;;;32.50;44.70;;;;;;5024033;28;20445;-77
2023/07/10 09:22:44;;;;;;;3.57;2.53;;;32.40;44.80;;;;;;5029177;28;20432;-77
2023/07/10 09:25:12;;;;;;;5.90;2.70;;;32.20;44.90;;;;;;5033668;28;20522;-77
2023/07/10 09:27:41;;;;;;;2.80;2.10;;;32.40;45.40;;;;;;5026569;28;21262;-76
2023/07/10 09:30:15;;;;;;;3.47;2.20;;;32.50;45.50;;;;;;5034435;28;20546;-77
2023/07/10 09:32:43;;;;;;;4.17;2.37;;;32.70;44.90;;;;;;5033769;28;21006;-77
2023/07/10 09:35:11;;;;;;;6.20;2.13;;;32.60;45.00;;;;;;5030564;28;20506;-77
2023/07/10 09:37:39;;;;;;;1.70;1.60;;;32.70;45.50;;;;;;5028011;28;20497;-77
2023/07/10 09:40:29;;;;;;;2.30;2.10;;;32.90;45.20;;;;;;5033846;28;20467;-77
2023/07/10 09:43:02;;;;;;;6.00;2.07;;;33.00;44.50;;;;;;5025581;28;20541;-78
2023/07/10 09:45:34;;;;;;;3.70;2.07;;;33.00;44.30;;;;;;5033590;28;20535;-77
2023/07/10 09:48:01;;;;;;;3.53;2.07;;;32.90;44.30;;;;;;5034503;28;20443;-78
2023/07/10 09:50:29;;;;;;;4.97;1.90;;;33.10;44.20;;;;;;5019010;28;20486;-76
2023/07/10 09:52:57;;;;;;;4.73;1.97;;;33.10;44.30;;;;;;5039490;28;20498;-77
2023/07/10 09:55:25;;;;;;;8.47;2.33;;;33.10;43.70;;;;;;5030058;28;20449;-77
2023/07/10 09:57:57;;;;;;;5.40;2.43;;;33.00;44.00;;;;;;5032123;28;20449;-77
2023/07/10 10:00:25;;;;;;;2.50;1.97;;;33.20;44.00;;;;;;5033545;28;20475;-78
2023/07/10 10:03:00;;;;;;;5.70;2.33;;;33.20;44.00;;;;;;5039137;28;20546;-77
2023/07/10 10:05:29;;;;;;;6.33;2.20;;;33.20;43.50;;;;;;5033869;28;20448;-78
2023/07/10 10:08:02;;;;;;;4.50;2.50;;;33.10;43.50;;;;;;5048669;28;20485;-79
2023/07/10 10:10:30;;;;;;;3.30;2.40;;;33.30;43.80;;;;;;5034232;28;20557;-78
2023/07/10 10:13:03;;;;;;;1.73;1.60;;;33.50;42.80;;;;;;5034516;28;20531;-79
2023/07/10 10:15:41;;;;;;;2.93;2.00;;;33.30;42.60;;;;;;5042988;28;20443;-79
2023/07/10 10:18:18;;;;;;;2.50;1.70;;;33.20;42.20;;;;;;5033732;28;20527;-78
2023/07/10 10:20:46;;;;;;;4.33;1.63;;;33.10;41.60;;;;;;5023876;28;20527;-78
2023/07/10 10:23:28;;;;;;;2.50;1.90;;;33.00;41.70;;;;;;5021047;28;20555;-79
2023/07/10 10:25:56;;;;;;;3.63;1.90;;;32.90;41.60;;;;;;5027965;28;20471;-78
2023/07/10 10:28:28;;;;;;;3.33;1.93;;;33.10;42.00;;;;;;5020036;28;20448;-78
2023/07/10 10:30:58;;;;;;;2.80;1.60;;;33.20;42.00;;;;;;5032874;28;20475;-78
2023/07/10 10:33:29;;;;;;;3.33;2.00;;;33.20;41.50;;;;;;5030694;28;20471;-78
2023/07/10 10:35:57;;;;;;;1.87;1.70;;;33.30;42.00;;;;;;5026227;28;20850;-78
2023/07/10 10:38:40;;;;;;;3.27;1.50;;;33.20;41.20;;;;;;5024813;28;20990;-78
2023/07/10 10:41:17;;;;;;;2.30;1.60;;;33.20;41.50;;;;;;5026469;28;20479;-78
2023/07/10 10:43:49;;;;;;;3.00;2.10;;;33.60;41.90;;;;;;5016265;28;20471;-79
2023/07/10 10:46:23;;;;;;;3.03;2.20;;;33.80;41.50;;;;;;5016763;28;20528;-79
2023/07/10 10:48:58;;;;;;;5.37;2.40;;;33.90;41.60;;;;;;5031488;28;20462;-79
2023/07/10 10:51:29;;;;;;;3.90;2.40;;;34.00;41.20;;;;;;5026187;28;20475;-78
2023/07/10 10:54:03;;;;;;;5.67;2.70;;;34.20;41.80;;;;;;5039489;28;20471;-79
2023/07/10 10:56:37;;;;;;;4.63;2.47;;;34.20;41.20;;;;;;5025146;28;20443;-79
2023/07/10 10:59:17;;;;;;;3.10;2.10;;;34.00;40.80;;;;;;5042792;28;20471;-78
2023/07/10 11:01:48;;;;;;;3.83;2.60;;;33.90;41.10;;;;;;5045177;28;20532;-78
2023/07/10 11:04:20;;;;;;;2.77;2.30;;;33.80;40.90;;;;;;5031639;28;20459;-78
2023/07/10 11:06:50;;;;;;;5.77;2.53;;;33.60;40.60;;;;;;5023314;28;20526;-78
2023/07/10 11:09:20;;;;;;;3.23;2.00;;;33.60;41.40;;;;;;5027517;28;20487;-79
2023/07/10 11:11:48;;;;;;;4.97;1.60;;;33.80;40.60;;;;;;5031858;28;20515;-78
2023/07/10 11:14:16;;;;;;;2.30;1.67;;;33.90;40.50;;;;;;5023586;28;20495;-78
2023/07/10 11:16:44;;;;;;;2.80;1.70;;;34.10;40.20;;;;;;5016379;28;20449;-78
2023/07/10 11:19:16;;;;;;;4.53;1.90;;;34.10;39.40;;;;;;5012921;28;20511;-78
2023/07/10 11:21:45;;;;;;;2.23;1.53;;;34.10;38.60;;;;;;5025863;28;20494;-78
2023/07/10 11:24:17;;;;;;;3.53;1.80;;;34.20;38.10;;;;;;5025835;28;20558;-78
2023/07/10 11:26:50;;;;;;;2.03;1.80;;;34.00;37.60;;;;;;5022698;28;20486;-78
2023/07/10 11:29:27;;;;;;;2.23;1.47;;;34.00;38.00;;;;;;5020535;28;20535;-78
2023/07/10 11:31:56;;;;;;;1.67;1.57;;;34.00;37.70;;;;;;5025726;28;20471;-77
2023/07/10 11:34:54;;;;;;;2.83;2.10;;;34.00;38.40;;;;;;5022437;28;20480;-78
2023/07/10 11:38:07;;;;;;;1.70;1.60;;;34.10;38.10;;;;;;5019536;28;20542;-78
2023/07/10 11:40:51;;;;;;;3.20;1.50;;;34.30;38.30;;;;;;5030236;28;20534;-78
2023/07/10 11:43:57;;;;;;;3.80;2.20;;;34.60;37.20;;;;;;5029477;28;20534;-78
2023/07/10 11:46:27;;;;;;;1.50;1.40;;;34.80;37.70;;;;;;5025319;28;20865;-78
2023/07/10 11:49:13;;;;;;;3.50;2.40;;;34.60;36.60;;;;;;5024866;28;20570;-78
2023/07/10 11:51:41;;;;;;;7.17;1.97;;;34.90;37.50;;;;;;5027942;28;20471;-78
2023/07/10 11:54:39;;;;;;;5.00;2.50;;;35.20;37.40;;;;;;5011951;28;20488;-78
2023/07/10 11:57:18;;;;;;;4.93;3.20;;;35.40;37.00;;;;;;5029931;28;20483;-78
2023/07/10 11:59:48;;;;;;;3.07;2.40;;;35.30;36.90;;;;;;5028740;28;20539;-77
2023/07/10 12:02:31;;;;;;;3.93;2.43;;;35.10;37.10;;;;;;5015529;28;20436;-78
2023/07/10 12:05:00;;;;;;;2.30;1.97;;;34.90;37.50;;;;;;5024648;28;20452;-78
2023/07/10 12:07:28;;;;;;;2.93;2.30;;;34.70;37.60;;;;;;5023284;28;20464;-76
2023/07/10 12:09:58;;;;;;;4.93;2.37;;;34.90;37.90;;;;;;5027643;28;20515;-79
2023/07/10 12:12:31;;;;;;;4.10;2.57;;;35.10;38.00;;;;;;5019218;28;20998;-79
2023/07/10 12:15:03;;;;;;;3.03;1.70;;;35.40;37.70;;;;;;5030984;28;20483;-79
2023/07/10 12:17:31;;;;;;;2.40;1.90;;;35.70;36.80;;;;;;5032616;28;20534;-79
2023/07/10 12:20:02;;;;;;;6.27;1.90;;;35.70;36.10;;;;;;5028617;28;20543;-79
2023/07/10 12:22:35;;;;;;;4.70;1.70;;;35.70;36.70;;;;;;5023734;28;20547;-77
2023/07/10 12:25:03;;;;;;;4.80;1.90;;;36.00;36.10;;;;;;5026033;28;20498;-79
2023/07/10 12:27:36;;;;;;;4.03;1.70;;;36.20;36.70;;;;;;5028109;28;20521;-79
2023/07/10 12:30:14;;;;;;;2.07;1.83;;;36.30;36.30;;;;;;5029957;28;20473;-80
2023/07/10 12:32:42;;;;;;;2.73;2.37;;;36.30;36.30;;;;;;5025272;28;20481;-79
2023/07/10 12:35:15;;;;;;;4.50;2.20;;;36.10;36.90;;;;;;5024750;28;20478;-79
2023/07/10 12:37:43;;;;;;;3.33;2.73;;;36.20;37.00;;;;;;5023361;28;20480;-79
2023/07/10 12:40:13;;;;;;;3.53;2.80;;;36.50;37.00;;;;;;5025844;28;20930;-79
2023/07/10 12:42:43;;;;;;;3.00;2.03;;;36.70;36.70;;;;;;5028117;28;20447;-77
2023/07/10 12:45:17;;;;;;;3.50;2.10;;;36.80;36.40;;;;;;5026246;28;20892;-77
2023/07/10 12:47:46;;;;;;;2.97;1.80;;;36.90;36.30;;;;;;5028578;28;20523;-78
2023/07/10 12:50:33;;;;;;;4.90;2.20;;;37.00;36.30;;;;;;5022833;28;20444;-77
2023/07/10 12:53:04;;;;;;;3.70;3.40;;;37.10;35.30;;;;;;5027796;28;20574;-77
2023/07/10 12:55:32;;;;;;;2.73;2.27;;;37.00;35.30;;;;;;5030160;28;20552;-78
2023/07/10 12:58:02;;;;;;;1.90;1.80;;;37.00;35.40;;;;;;5032222;28;20475;-77
2023/07/10 13:00:47;;;;;;;4.13;1.80;;;36.90;35.00;;;;;;5029954;28;20999;-80